sensor_id;sensor_type;location;lat;lon;timestamp;temperature;humidity
63299;DHT22;54535;52.138;5.398;2022-09-16T00:00:50;14.60;97.70
63299;DHT22;54535;52.138;5.398;2022-09-16T00:03:17;14.60;97.60
63299;DHT22;54535;52.138;5.398;2022-09-16T00:05:45;14.70;97.70
63299;DHT22;54535;52.138;5.398;2022-09-16T00:08:12;14.70;97.50
63299;DHT22;54535;52.138;5.398;2022-09-16T00:10:39;14.70;97.50
63299;DHT22;54535;52.138;5.398;2022-09-16T00:13:06;14.80;97.50
63299;DHT22;54535;52.138;5.398;2022-09-16T00:15:33;14.80;97.50
63299;DHT22;54535;52.138;5.398;2022-09-16T00:17:59;14.80;97.60
63299;DHT22;54535;52.138;5.398;2022-09-16T00:20:26;14.80;97.50
63299;DHT22;54535;52.138;5.398;2022-09-16T00:22:53;14.90;97.50
63299;DHT22;54535;52.138;5.398;2022-09-16T00:25:19;14.90;97.40
63299;DHT22;54535;52.138;5.398;2022-09-16T00:27:46;14.90;97.30
63299;DHT22;54535;52.138;5.398;2022-09-16T00:30:13;14.80;97.30
63299;DHT22;54535;52.138;5.398;2022-09-16T00:32:40;14.80;97.30
63299;DHT22;54535;52.138;5.398;2022-09-16T00:35:07;14.80;97.60
63299;DHT22;54535;52.138;5.398;2022-09-16T00:37:34;14.60;97.40
63299;DHT22;54535;52.138;5.398;2022-09-16T00:40:01;14.50;98.00
63299;DHT22;54535;52.138;5.398;2022-09-16T00:42:28;14.20;98.10
63299;DHT22;54535;52.138;5.398;2022-09-16T00:47:27;14.10;98.60
63299;DHT22;54535;52.138;5.398;2022-09-16T00:49:54;14.00;98.80
63299;DHT22;54535;52.138;5.398;2022-09-16T00:52:22;13.90;98.90
63299;DHT22;54535;52.138;5.398;2022-09-16T00:54:48;13.80;99.20
63299;DHT22;54535;52.138;5.398;2022-09-16T00:57:15;13.80;99.30
63299;DHT22;54535;52.138;5.398;2022-09-16T00:59:46;13.80;99.10
63299;DHT22;54535;52.138;5.398;2022-09-16T01:02:15;13.80;99.30
63299;DHT22;54535;52.138;5.398;2022-09-16T01:07:09;13.90;99.30
63299;DHT22;54535;52.138;5.398;2022-09-16T01:09:36;13.90;99.30
63299;DHT22;54535;52.138;5.398;2022-09-16T01:12:03;13.90;99.00
63299;DHT22;54535;52.138;5.398;2022-09-16T01:14:30;13.90;99.30
63299;DHT22;54535;52.138;5.398;2022-09-16T01:35:21;14.30;98.40
63299;DHT22;54535;52.138;5.398;2022-09-16T01:40:45;14.30;98.50
63299;DHT22;54535;52.138;5.398;2022-09-16T01:43:20;14.20;98.40
63299;DHT22;54535;52.138;5.398;2022-09-16T01:45:59;14.20;98.40
63299;DHT22;54535;52.138;5.398;2022-09-16T01:48:31;14.20;98.30
63299;DHT22;54535;52.138;5.398;2022-09-16T01:51:02;14.10;98.40
63299;DHT22;54535;52.138;5.398;2022-09-16T01:53:35;14.10;98.30
63299;DHT22;54535;52.138;5.398;2022-09-16T01:56:07;14.00;98.20
63299;DHT22;54535;52.138;5.398;2022-09-16T02:01:07;13.90;98.40
63299;DHT22;54535;52.138;5.398;2022-09-16T02:03:35;13.90;98.50
63299;DHT22;54535;52.138;5.398;2022-09-16T02:06:07;13.90;98.50
63299;DHT22;54535;52.138;5.398;2022-09-16T02:08:42;13.80;98.60
63299;DHT22;54535;52.138;5.398;2022-09-16T02:11:12;13.70;98.80
63299;DHT22;54535;52.138;5.398;2022-09-16T02:13:44;13.70;99.10
63299;DHT22;54535;52.138;5.398;2022-09-16T02:16:13;13.70;98.70
63299;DHT22;54535;52.138;5.398;2022-09-16T02:18:42;13.70;98.90
63299;DHT22;54535;52.138;5.398;2022-09-16T02:21:11;13.70;98.80
63299;DHT22;54535;52.138;5.398;2022-09-16T02:23:40;13.70;98.70
63299;DHT22;54535;52.138;5.398;2022-09-16T02:26:08;13.70;98.80
63299;DHT22;54535;52.138;5.398;2022-09-16T02:28:37;13.70;99.30
63299;DHT22;54535;52.138;5.398;2022-09-16T02:31:06;13.70;99.10
63299;DHT22;54535;52.138;5.398;2022-09-16T02:33:38;13.70;99.10
63299;DHT22;54535;52.138;5.398;2022-09-16T02:36:05;13.70;99.10
63299;DHT22;54535;52.138;5.398;2022-09-16T02:38:34;13.70;99.20
63299;DHT22;54535;52.138;5.398;2022-09-16T02:41:04;13.60;99.60
63299;DHT22;54535;52.138;5.398;2022-09-16T02:43:31;13.60;99.20
63299;DHT22;54535;52.138;5.398;2022-09-16T02:46:01;13.60;99.50
63299;DHT22;54535;52.138;5.398;2022-09-16T02:53:51;13.50;99.50
63299;DHT22;54535;52.138;5.398;2022-09-16T02:56:21;13.50;99.50
63299;DHT22;54535;52.138;5.398;2022-09-16T02:58:49;13.60;99.80
63299;DHT22;54535;52.138;5.398;2022-09-16T03:01:16;13.60;99.50
63299;DHT22;54535;52.138;5.398;2022-09-16T03:03:44;13.70;99.50
63299;DHT22;54535;52.138;5.398;2022-09-16T03:06:19;13.70;99.40
63299;DHT22;54535;52.138;5.398;2022-09-16T03:08:46;13.80;99.40
63299;DHT22;54535;52.138;5.398;2022-09-16T03:21:37;13.80;99.30
63299;DHT22;54535;52.138;5.398;2022-09-16T03:29:09;13.70;99.10
63299;DHT22;54535;52.138;5.398;2022-09-16T03:34:05;13.70;99.10
63299;DHT22;54535;52.138;5.398;2022-09-16T03:36:35;13.70;99.10
63299;DHT22;54535;52.138;5.398;2022-09-16T03:39:03;13.80;99.10
63299;DHT22;54535;52.138;5.398;2022-09-16T03:41:30;13.80;99.40
63299;DHT22;54535;52.138;5.398;2022-09-16T03:43:59;13.70;99.60
63299;DHT22;54535;52.138;5.398;2022-09-16T03:46:29;13.70;99.30
63299;DHT22;54535;52.138;5.398;2022-09-16T03:48:56;13.70;99.30
63299;DHT22;54535;52.138;5.398;2022-09-16T03:51:23;13.70;99.30
63299;DHT22;54535;52.138;5.398;2022-09-16T03:53:50;13.70;99.40
63299;DHT22;54535;52.138;5.398;2022-09-16T03:56:17;13.60;99.50
63299;DHT22;54535;52.138;5.398;2022-09-16T03:58:45;13.60;99.60
63299;DHT22;54535;52.138;5.398;2022-09-16T04:01:12;13.50;99.70
63299;DHT22;54535;52.138;5.398;2022-09-16T04:03:39;13.50;99.90
63299;DHT22;54535;52.138;5.398;2022-09-16T04:06:06;13.40;99.90
63299;DHT22;54535;52.138;5.398;2022-09-16T04:08:34;13.40;99.90
63299;DHT22;54535;52.138;5.398;2022-09-16T04:11:02;13.30;99.90
63299;DHT22;54535;52.138;5.398;2022-09-16T04:13:31;13.20;99.90
63299;DHT22;54535;52.138;5.398;2022-09-16T04:15:58;13.20;99.90
63299;DHT22;54535;52.138;5.398;2022-09-16T04:18:25;13.20;99.90
63299;DHT22;54535;52.138;5.398;2022-09-16T04:20:56;13.20;99.90
63299;DHT22;54535;52.138;5.398;2022-09-16T04:23:23;13.30;99.90
63299;DHT22;54535;52.138;5.398;2022-09-16T04:26:00;13.30;99.90
63299;DHT22;54535;52.138;5.398;2022-09-16T04:28:28;13.20;99.90
63299;DHT22;54535;52.138;5.398;2022-09-16T04:31:00;13.10;99.90
63299;DHT22;54535;52.138;5.398;2022-09-16T04:33:28;13.10;99.90
63299;DHT22;54535;52.138;5.398;2022-09-16T04:36:05;13.00;99.90
63299;DHT22;54535;52.138;5.398;2022-09-16T04:38:32;13.10;99.90
63299;DHT22;54535;52.138;5.398;2022-09-16T04:41:32;13.10;99.90
63299;DHT22;54535;52.138;5.398;2022-09-16T04:43:52;13.10;99.90
63299;DHT22;54535;52.138;5.398;2022-09-16T04:46:19;13.10;99.90
63299;DHT22;54535;52.138;5.398;2022-09-16T04:48:49;13.10;99.80
63299;DHT22;54535;52.138;5.398;2022-09-16T04:51:16;13.10;99.80
63299;DHT22;54535;52.138;5.398;2022-09-16T04:53:43;13.10;99.70
63299;DHT22;54535;52.138;5.398;2022-09-16T04:56:11;13.10;99.90
63299;DHT22;54535;52.138;5.398;2022-09-16T04:58:41;13.10;99.70
63299;DHT22;54535;52.138;5.398;2022-09-16T05:01:09;13.00;99.70
63299;DHT22;54535;52.138;5.398;2022-09-16T05:03:39;13.00;99.60
63299;DHT22;54535;52.138;5.398;2022-09-16T05:06:07;13.00;99.70
63299;DHT22;54535;52.138;5.398;2022-09-16T05:08:34;13.00;99.60
63299;DHT22;54535;52.138;5.398;2022-09-16T05:11:02;12.90;99.80
63299;DHT22;54535;52.138;5.398;2022-09-16T05:13:29;12.90;99.90
63299;DHT22;54535;52.138;5.398;2022-09-16T05:15:59;12.80;99.90
63299;DHT22;54535;52.138;5.398;2022-09-16T05:18:26;12.70;99.90
63299;DHT22;54535;52.138;5.398;2022-09-16T05:20:59;12.70;99.90
63299;DHT22;54535;52.138;5.398;2022-09-16T05:23:26;12.70;99.90
63299;DHT22;54535;52.138;5.398;2022-09-16T05:25:53;12.60;99.90
63299;DHT22;54535;52.138;5.398;2022-09-16T05:28:20;12.70;99.90
63299;DHT22;54535;52.138;5.398;2022-09-16T05:30:47;12.70;99.90
63299;DHT22;54535;52.138;5.398;2022-09-16T05:33:13;12.70;99.90
63299;DHT22;54535;52.138;5.398;2022-09-16T05:35:40;12.80;99.90
63299;DHT22;54535;52.138;5.398;2022-09-16T05:38:07;12.80;99.90
63299;DHT22;54535;52.138;5.398;2022-09-16T05:40:33;12.80;99.90
63299;DHT22;54535;52.138;5.398;2022-09-16T05:43:00;12.80;99.90
63299;DHT22;54535;52.138;5.398;2022-09-16T05:45:27;12.80;99.90
63299;DHT22;54535;52.138;5.398;2022-09-16T05:47:58;12.80;99.90
63299;DHT22;54535;52.138;5.398;2022-09-16T05:50:24;12.80;99.90
63299;DHT22;54535;52.138;5.398;2022-09-16T05:52:51;12.80;99.90
63299;DHT22;54535;52.138;5.398;2022-09-16T05:55:17;12.80;99.90
63299;DHT22;54535;52.138;5.398;2022-09-16T05:57:44;12.80;99.90
63299;DHT22;54535;52.138;5.398;2022-09-16T06:00:11;12.80;99.90
63299;DHT22;54535;52.138;5.398;2022-09-16T06:02:38;12.80;99.90
63299;DHT22;54535;52.138;5.398;2022-09-16T06:05:04;12.80;99.90
63299;DHT22;54535;52.138;5.398;2022-09-16T06:07:31;12.90;99.90
63299;DHT22;54535;52.138;5.398;2022-09-16T06:09:58;12.90;99.90
63299;DHT22;54535;52.138;5.398;2022-09-16T06:12:25;13.00;99.90
63299;DHT22;54535;52.138;5.398;2022-09-16T06:14:51;13.00;99.90
63299;DHT22;54535;52.138;5.398;2022-09-16T06:17:18;13.00;99.90
63299;DHT22;54535;52.138;5.398;2022-09-16T06:19:45;13.00;99.90
63299;DHT22;54535;52.138;5.398;2022-09-16T06:22:11;13.10;99.90
63299;DHT22;54535;52.138;5.398;2022-09-16T06:24:38;13.10;99.90
63299;DHT22;54535;52.138;5.398;2022-09-16T06:27:04;13.10;99.90
63299;DHT22;54535;52.138;5.398;2022-09-16T06:29:31;13.10;99.90
63299;DHT22;54535;52.138;5.398;2022-09-16T06:31:57;13.10;99.90
63299;DHT22;54535;52.138;5.398;2022-09-16T06:34:24;13.20;99.90
63299;DHT22;54535;52.138;5.398;2022-09-16T06:36:52;13.20;99.90
63299;DHT22;54535;52.138;5.398;2022-09-16T06:39:18;13.30;99.90
63299;DHT22;54535;52.138;5.398;2022-09-16T06:41:45;13.50;99.90
63299;DHT22;54535;52.138;5.398;2022-09-16T06:44:12;13.50;99.90
63299;DHT22;54535;52.138;5.398;2022-09-16T06:46:38;13.60;99.90
63299;DHT22;54535;52.138;5.398;2022-09-16T06:49:05;13.70;99.90
63299;DHT22;54535;52.138;5.398;2022-09-16T06:51:32;13.60;99.90
63299;DHT22;54535;52.138;5.398;2022-09-16T06:54:03;13.70;99.90
63299;DHT22;54535;52.138;5.398;2022-09-16T06:56:30;13.80;99.90
63299;DHT22;54535;52.138;5.398;2022-09-16T06:58:59;13.90;99.90
63299;DHT22;54535;52.138;5.398;2022-09-16T07:01:27;13.90;99.90
63299;DHT22;54535;52.138;5.398;2022-09-16T07:03:54;14.00;99.90
63299;DHT22;54535;52.138;5.398;2022-09-16T07:06:21;14.10;99.90
63299;DHT22;54535;52.138;5.398;2022-09-16T07:09:09;14.10;99.90
63299;DHT22;54535;52.138;5.398;2022-09-16T07:11:36;14.10;99.90
63299;DHT22;54535;52.138;5.398;2022-09-16T07:14:03;14.10;99.90
63299;DHT22;54535;52.138;5.398;2022-09-16T07:16:30;14.10;99.90
63299;DHT22;54535;52.138;5.398;2022-09-16T07:18:57;14.10;99.90
63299;DHT22;54535;52.138;5.398;2022-09-16T07:21:27;14.10;99.80
63299;DHT22;54535;52.138;5.398;2022-09-16T07:23:57;14.10;99.90
63299;DHT22;54535;52.138;5.398;2022-09-16T07:26:25;14.10;99.80
63299;DHT22;54535;52.138;5.398;2022-09-16T07:28:52;14.10;99.80
63299;DHT22;54535;52.138;5.398;2022-09-16T07:31:20;14.10;99.90
63299;DHT22;54535;52.138;5.398;2022-09-16T07:33:48;14.10;99.90
63299;DHT22;54535;52.138;5.398;2022-09-16T07:36:16;14.20;99.90
63299;DHT22;54535;52.138;5.398;2022-09-16T07:38:43;14.30;99.90
63299;DHT22;54535;52.138;5.398;2022-09-16T07:41:10;14.30;99.70
63299;DHT22;54535;52.138;5.398;2022-09-16T07:43:38;14.40;99.70
63299;DHT22;54535;52.138;5.398;2022-09-16T07:46:06;14.40;99.70
63299;DHT22;54535;52.138;5.398;2022-09-16T07:48:34;14.50;99.70
63299;DHT22;54535;52.138;5.398;2022-09-16T07:51:02;14.50;99.40
63299;DHT22;54535;52.138;5.398;2022-09-16T07:53:29;14.60;99.40
63299;DHT22;54535;52.138;5.398;2022-09-16T07:55:59;14.60;99.40
63299;DHT22;54535;52.138;5.398;2022-09-16T07:58:26;14.70;99.20
63299;DHT22;54535;52.138;5.398;2022-09-16T08:00:53;14.80;99.00
63299;DHT22;54535;52.138;5.398;2022-09-16T08:03:19;14.90;98.60
63299;DHT22;54535;52.138;5.398;2022-09-16T08:05:46;14.90;98.00
63299;DHT22;54535;52.138;5.398;2022-09-16T08:08:12;14.90;96.70
63299;DHT22;54535;52.138;5.398;2022-09-16T08:10:39;15.00;96.60
63299;DHT22;54535;52.138;5.398;2022-09-16T08:13:07;15.00;96.30
63299;DHT22;54535;52.138;5.398;2022-09-16T08:15:33;15.00;96.00
63299;DHT22;54535;52.138;5.398;2022-09-16T08:18:00;14.90;95.90
63299;DHT22;54535;52.138;5.398;2022-09-16T08:20:27;14.90;96.10
63299;DHT22;54535;52.138;5.398;2022-09-16T08:22:54;14.90;96.30
63299;DHT22;54535;52.138;5.398;2022-09-16T08:25:23;14.90;96.50
63299;DHT22;54535;52.138;5.398;2022-09-16T08:27:50;15.00;96.80
63299;DHT22;54535;52.138;5.398;2022-09-16T08:30:21;15.00;97.00
63299;DHT22;54535;52.138;5.398;2022-09-16T08:32:54;15.00;97.10
63299;DHT22;54535;52.138;5.398;2022-09-16T08:35:20;15.00;97.10
63299;DHT22;54535;52.138;5.398;2022-09-16T08:37:47;15.00;96.80
63299;DHT22;54535;52.138;5.398;2022-09-16T08:40:17;15.00;96.90
63299;DHT22;54535;52.138;5.398;2022-09-16T08:42:52;15.00;97.00
63299;DHT22;54535;52.138;5.398;2022-09-16T08:45:27;15.00;97.00
63299;DHT22;54535;52.138;5.398;2022-09-16T08:47:58;15.00;97.10
63299;DHT22;54535;52.138;5.398;2022-09-16T08:50:29;15.00;97.30
63299;DHT22;54535;52.138;5.398;2022-09-16T08:52:57;15.00;97.50
63299;DHT22;54535;52.138;5.398;2022-09-16T08:55:33;15.10;97.50
63299;DHT22;54535;52.138;5.398;2022-09-16T09:00:36;15.10;97.50
63299;DHT22;54535;52.138;5.398;2022-09-16T09:05:51;15.20;97.00
63299;DHT22;54535;52.138;5.398;2022-09-16T09:10:53;15.40;97.20
63299;DHT22;54535;52.138;5.398;2022-09-16T09:21:25;15.90;95.60
63299;DHT22;54535;52.138;5.398;2022-09-16T09:31:42;15.50;95.80
63299;DHT22;54535;52.138;5.398;2022-09-16T09:39:53;15.60;96.50
63299;DHT22;54535;52.138;5.398;2022-09-16T09:42:35;15.60;96.50
63299;DHT22;54535;52.138;5.398;2022-09-16T09:45:17;15.60;96.50
63299;DHT22;54535;52.138;5.398;2022-09-16T09:47:45;15.70;96.40
63299;DHT22;54535;52.138;5.398;2022-09-16T09:50:22;15.70;95.80
63299;DHT22;54535;52.138;5.398;2022-09-16T09:55:40;15.90;95.70
63299;DHT22;54535;52.138;5.398;2022-09-16T09:58:15;15.90;95.20
63299;DHT22;54535;52.138;5.398;2022-09-16T10:00:43;16.00;94.80
63299;DHT22;54535;52.138;5.398;2022-09-16T10:03:10;16.10;94.50
63299;DHT22;54535;52.138;5.398;2022-09-16T10:05:38;16.20;94.20
63299;DHT22;54535;52.138;5.398;2022-09-16T10:08:08;16.30;93.60
63299;DHT22;54535;52.138;5.398;2022-09-16T10:10:58;16.40;94.00
63299;DHT22;54535;52.138;5.398;2022-09-16T10:13:25;16.50;93.80
63299;DHT22;54535;52.138;5.398;2022-09-16T10:15:53;16.60;93.60
63299;DHT22;54535;52.138;5.398;2022-09-16T10:18:23;16.70;93.20
63299;DHT22;54535;52.138;5.398;2022-09-16T10:20:58;16.80;93.20
63299;DHT22;54535;52.138;5.398;2022-09-16T10:23:26;16.80;92.80
63299;DHT22;54535;52.138;5.398;2022-09-16T10:26:03;16.60;92.40
63299;DHT22;54535;52.138;5.398;2022-09-16T10:28:29;16.40;92.30
63299;DHT22;54535;52.138;5.398;2022-09-16T10:30:57;16.20;91.60
63299;DHT22;54535;52.138;5.398;2022-09-16T10:33:28;16.00;92.00
63299;DHT22;54535;52.138;5.398;2022-09-16T10:35:56;15.90;92.20
63299;DHT22;54535;52.138;5.398;2022-09-16T10:38:25;15.70;92.70
63299;DHT22;54535;52.138;5.398;2022-09-16T10:40:56;15.80;93.20
63299;DHT22;54535;52.138;5.398;2022-09-16T10:43:26;15.80;93.40
63299;DHT22;54535;52.138;5.398;2022-09-16T10:45:54;15.90;92.80
63299;DHT22;54535;52.138;5.398;2022-09-16T10:48:23;15.90;92.90
63299;DHT22;54535;52.138;5.398;2022-09-16T10:50:57;16.00;92.80
63299;DHT22;54535;52.138;5.398;2022-09-16T10:53:34;16.00;92.20
63299;DHT22;54535;52.138;5.398;2022-09-16T10:56:06;16.00;92.00
63299;DHT22;54535;52.138;5.398;2022-09-16T10:58:33;16.10;92.30
63299;DHT22;54535;52.138;5.398;2022-09-16T11:03:40;16.10;92.00
63299;DHT22;54535;52.138;5.398;2022-09-16T11:06:20;16.20;91.20
63299;DHT22;54535;52.138;5.398;2022-09-16T11:14:03;16.40;90.80
63299;DHT22;54535;52.138;5.398;2022-09-16T11:16:52;16.50;90.30
63299;DHT22;54535;52.138;5.398;2022-09-16T11:22:12;16.70;90.50
63299;DHT22;54535;52.138;5.398;2022-09-16T11:29:45;17.30;90.20
63299;DHT22;54535;52.138;5.398;2022-09-16T11:35:01;17.50;90.50
63299;DHT22;54535;52.138;5.398;2022-09-16T11:37:42;17.60;90.40
63299;DHT22;54535;52.138;5.398;2022-09-16T11:40:16;17.60;90.20
63299;DHT22;54535;52.138;5.398;2022-09-16T11:53:36;17.00;91.40
63299;DHT22;54535;52.138;5.398;2022-09-16T11:56:14;16.90;91.60
63299;DHT22;54535;52.138;5.398;2022-09-16T11:58:52;16.70;91.50
63299;DHT22;54535;52.138;5.398;2022-09-16T12:01:39;16.60;91.80
63299;DHT22;54535;52.138;5.398;2022-09-16T12:09:19;16.60;92.20
63299;DHT22;54535;52.138;5.398;2022-09-16T12:11:50;16.80;92.40
63299;DHT22;54535;52.138;5.398;2022-09-16T12:14:19;17.00;92.30
63299;DHT22;54535;52.138;5.398;2022-09-16T12:16:48;17.30;92.00
63299;DHT22;54535;52.138;5.398;2022-09-16T12:19:19;17.50;90.90
63299;DHT22;54535;52.138;5.398;2022-09-16T12:27:00;18.00;89.60
63299;DHT22;54535;52.138;5.398;2022-09-16T12:29:35;18.30;89.60
63299;DHT22;54535;52.138;5.398;2022-09-16T12:32:07;18.60;90.00
63299;DHT22;54535;52.138;5.398;2022-09-16T12:34:37;18.80;85.70
63299;DHT22;54535;52.138;5.398;2022-09-16T12:39:50;18.80;85.30
63299;DHT22;54535;52.138;5.398;2022-09-16T12:42:36;18.80;84.20
63299;DHT22;54535;52.138;5.398;2022-09-16T12:48:42;18.30;78.60
63299;DHT22;54535;52.138;5.398;2022-09-16T12:50:46;18.00;81.10
63299;DHT22;54535;52.138;5.398;2022-09-16T12:58:56;17.60;87.10
63299;DHT22;54535;52.138;5.398;2022-09-16T13:01:36;17.50;87.40
63299;DHT22;54535;52.138;5.398;2022-09-16T13:04:15;17.60;87.90
63299;DHT22;54535;52.138;5.398;2022-09-16T13:06:46;17.70;87.70
63299;DHT22;54535;52.138;5.398;2022-09-16T13:11:40;17.60;88.10
63299;DHT22;54535;52.138;5.398;2022-09-16T13:14:31;17.60;88.30
63299;DHT22;54535;52.138;5.398;2022-09-16T13:16:59;18.10;91.20
63299;DHT22;54535;52.138;5.398;2022-09-16T13:24:42;21.60;83.80
63299;DHT22;54535;52.138;5.398;2022-09-16T13:27:30;22.70;84.50
63299;DHT22;54535;52.138;5.398;2022-09-16T13:32:37;24.40;71.50
63299;DHT22;54535;52.138;5.398;2022-09-16T13:36:00;23.90;70.70
63299;DHT22;54535;52.138;5.398;2022-09-16T13:37:52;23.40;68.90
63299;DHT22;54535;52.138;5.398;2022-09-16T13:40:24;23.90;70.20
63299;DHT22;54535;52.138;5.398;2022-09-16T13:42:51;24.90;70.20
63299;DHT22;54535;52.138;5.398;2022-09-16T13:45:33;26.00;70.60
63299;DHT22;54535;52.138;5.398;2022-09-16T13:48:04;27.00;62.60
63299;DHT22;54535;52.138;5.398;2022-09-16T13:50:31;27.40;59.30
63299;DHT22;54535;52.138;5.398;2022-09-16T13:53:07;26.90;53.50
63299;DHT22;54535;52.138;5.398;2022-09-16T13:55:33;26.10;52.30
63299;DHT22;54535;52.138;5.398;2022-09-16T14:00:33;24.80;54.90
63299;DHT22;54535;52.138;5.398;2022-09-16T14:03:10;24.30;56.70
63299;DHT22;54535;52.138;5.398;2022-09-16T14:06:02;23.90;58.00
63299;DHT22;54535;52.138;5.398;2022-09-16T14:11:06;23.10;58.40
63299;DHT22;54535;52.138;5.398;2022-09-16T14:13:35;22.90;57.40
63299;DHT22;54535;52.138;5.398;2022-09-16T14:16:08;22.60;56.50
63299;DHT22;54535;52.138;5.398;2022-09-16T14:18:39;22.40;55.80
63299;DHT22;54535;52.138;5.398;2022-09-16T14:21:17;22.10;56.20
63299;DHT22;54535;52.138;5.398;2022-09-16T14:23:45;21.90;57.00
63299;DHT22;54535;52.138;5.398;2022-09-16T14:26:13;21.70;57.90
63299;DHT22;54535;52.138;5.398;2022-09-16T14:28:39;21.50;59.10
63299;DHT22;54535;52.138;5.398;2022-09-16T14:31:07;21.30;60.40
63299;DHT22;54535;52.138;5.398;2022-09-16T14:33:56;21.10;61.70
63299;DHT22;54535;52.138;5.398;2022-09-16T14:36:30;20.80;62.30
63299;DHT22;54535;52.138;5.398;2022-09-16T14:41:35;20.60;63.40
63299;DHT22;54535;52.138;5.398;2022-09-16T14:44:14;20.70;63.70
63299;DHT22;54535;52.138;5.398;2022-09-16T14:46:43;20.60;63.40
63299;DHT22;54535;52.138;5.398;2022-09-16T14:49:11;20.60;63.90
63299;DHT22;54535;52.138;5.398;2022-09-16T14:51:41;20.80;64.60
63299;DHT22;54535;52.138;5.398;2022-09-16T14:54:19;20.90;62.10
63299;DHT22;54535;52.138;5.398;2022-09-16T14:59:23;21.20;59.80
63299;DHT22;54535;52.138;5.398;2022-09-16T15:01:51;21.30;57.90
63299;DHT22;54535;52.138;5.398;2022-09-16T15:04:21;21.40;57.00
63299;DHT22;54535;52.138;5.398;2022-09-16T15:06:51;21.40;55.70
63299;DHT22;54535;52.138;5.398;2022-09-16T15:09:23;21.40;54.80
63299;DHT22;54535;52.138;5.398;2022-09-16T15:11:52;21.50;53.80
63299;DHT22;54535;52.138;5.398;2022-09-16T15:14:20;21.50;53.50
63299;DHT22;54535;52.138;5.398;2022-09-16T15:16:52;21.50;53.70
63299;DHT22;54535;52.138;5.398;2022-09-16T15:19:23;21.30;53.20
63299;DHT22;54535;52.138;5.398;2022-09-16T15:21:51;21.00;54.80
63299;DHT22;54535;52.138;5.398;2022-09-16T15:24:22;20.70;56.40
63299;DHT22;54535;52.138;5.398;2022-09-16T15:26:50;20.40;57.40
63299;DHT22;54535;52.138;5.398;2022-09-16T15:31:46;20.30;60.20
63299;DHT22;54535;52.138;5.398;2022-09-16T15:42:20;20.90;57.20
63299;DHT22;54535;52.138;5.398;2022-09-16T15:44:53;20.90;57.30
63299;DHT22;54535;52.138;5.398;2022-09-16T15:47:23;20.60;57.50
63299;DHT22;54535;52.138;5.398;2022-09-16T15:55:42;19.60;59.00
63299;DHT22;54535;52.138;5.398;2022-09-16T15:58:16;19.40;59.40
63299;DHT22;54535;52.138;5.398;2022-09-16T16:01:03;19.40;60.30
63299;DHT22;54535;52.138;5.398;2022-09-16T16:03:45;19.60;60.70
63299;DHT22;54535;52.138;5.398;2022-09-16T16:06:15;20.00;60.60
63299;DHT22;54535;52.138;5.398;2022-09-16T16:08:43;20.50;59.10
63299;DHT22;54535;52.138;5.398;2022-09-16T16:11:11;20.80;58.90
63299;DHT22;54535;52.138;5.398;2022-09-16T16:13:39;21.20;57.70
63299;DHT22;54535;52.138;5.398;2022-09-16T16:16:06;21.50;57.20
63299;DHT22;54535;52.138;5.398;2022-09-16T16:18:34;21.90;56.90
63299;DHT22;54535;52.138;5.398;2022-09-16T16:21:05;22.30;55.80
63299;DHT22;54535;52.138;5.398;2022-09-16T16:23:32;22.70;54.20
63299;DHT22;54535;52.138;5.398;2022-09-16T16:25:59;22.70;52.60
63299;DHT22;54535;52.138;5.398;2022-09-16T16:28:26;22.60;52.10
63299;DHT22;54535;52.138;5.398;2022-09-16T16:30:52;22.40;51.70
63299;DHT22;54535;52.138;5.398;2022-09-16T16:33:19;22.10;50.50
63299;DHT22;54535;52.138;5.398;2022-09-16T16:35:45;21.90;51.10
63299;DHT22;54535;52.138;5.398;2022-09-16T16:38:12;21.50;51.50
63299;DHT22;54535;52.138;5.398;2022-09-16T16:40:39;21.00;52.50
63299;DHT22;54535;52.138;5.398;2022-09-16T16:43:14;20.60;53.70
63299;DHT22;54535;52.138;5.398;2022-09-16T16:45:41;20.20;55.40
63299;DHT22;54535;52.138;5.398;2022-09-16T16:48:07;19.80;55.90
63299;DHT22;54535;52.138;5.398;2022-09-16T16:50:36;19.50;57.20
63299;DHT22;54535;52.138;5.398;2022-09-16T16:53:02;19.20;57.80
63299;DHT22;54535;52.138;5.398;2022-09-16T16:55:30;19.00;59.10
63299;DHT22;54535;52.138;5.398;2022-09-16T16:57:56;18.80;60.50
63299;DHT22;54535;52.138;5.398;2022-09-16T17:00:23;18.70;60.60
63299;DHT22;54535;52.138;5.398;2022-09-16T17:02:50;18.60;61.40
63299;DHT22;54535;52.138;5.398;2022-09-16T17:05:16;18.50;61.70
63299;DHT22;54535;52.138;5.398;2022-09-16T17:07:43;18.40;62.40
63299;DHT22;54535;52.138;5.398;2022-09-16T17:10:09;18.40;63.30
63299;DHT22;54535;52.138;5.398;2022-09-16T17:12:36;18.30;63.60
63299;DHT22;54535;52.138;5.398;2022-09-16T17:15:03;18.20;64.30
63299;DHT22;54535;52.138;5.398;2022-09-16T17:17:30;18.00;64.90
63299;DHT22;54535;52.138;5.398;2022-09-16T17:19:57;18.00;65.10
63299;DHT22;54535;52.138;5.398;2022-09-16T17:22:24;17.90;65.50
63299;DHT22;54535;52.138;5.398;2022-09-16T17:24:50;17.80;66.40
63299;DHT22;54535;52.138;5.398;2022-09-16T17:27:17;17.70;66.40
63299;DHT22;54535;52.138;5.398;2022-09-16T17:29:46;17.70;66.80
63299;DHT22;54535;52.138;5.398;2022-09-16T17:32:12;17.60;67.70
63299;DHT22;54535;52.138;5.398;2022-09-16T17:34:39;17.60;67.60
63299;DHT22;54535;52.138;5.398;2022-09-16T17:37:06;17.60;67.80
63299;DHT22;54535;52.138;5.398;2022-09-16T17:39:33;17.50;68.30
63299;DHT22;54535;52.138;5.398;2022-09-16T17:42:00;17.50;69.60
63299;DHT22;54535;52.138;5.398;2022-09-16T17:44:27;17.40;69.20
63299;DHT22;54535;52.138;5.398;2022-09-16T17:46:53;17.30;70.10
63299;DHT22;54535;52.138;5.398;2022-09-16T17:49:21;17.20;70.10
63299;DHT22;54535;52.138;5.398;2022-09-16T17:51:48;17.20;70.30
63299;DHT22;54535;52.138;5.398;2022-09-16T17:54:15;17.10;70.70
63299;DHT22;54535;52.138;5.398;2022-09-16T17:56:42;17.10;71.10
63299;DHT22;54535;52.138;5.398;2022-09-16T17:59:10;17.10;71.10
63299;DHT22;54535;52.138;5.398;2022-09-16T18:01:37;17.00;71.50
63299;DHT22;54535;52.138;5.398;2022-09-16T18:04:03;16.90;72.20
63299;DHT22;54535;52.138;5.398;2022-09-16T18:06:31;16.90;72.10
63299;DHT22;54535;52.138;5.398;2022-09-16T18:09:02;16.80;72.60
63299;DHT22;54535;52.138;5.398;2022-09-16T18:11:29;16.70;72.90
63299;DHT22;54535;52.138;5.398;2022-09-16T18:13:56;16.70;73.00
63299;DHT22;54535;52.138;5.398;2022-09-16T18:16:23;16.70;73.50
63299;DHT22;54535;52.138;5.398;2022-09-16T18:18:51;16.70;74.00
63299;DHT22;54535;52.138;5.398;2022-09-16T18:21:19;16.60;74.50
63299;DHT22;54535;52.138;5.398;2022-09-16T18:23:46;16.40;74.40
63299;DHT22;54535;52.138;5.398;2022-09-16T18:26:15;16.40;74.70
63299;DHT22;54535;52.138;5.398;2022-09-16T18:28:42;16.30;74.90
63299;DHT22;54535;52.138;5.398;2022-09-16T18:31:30;16.30;75.40
63299;DHT22;54535;52.138;5.398;2022-09-16T18:33:57;16.20;76.10
63299;DHT22;54535;52.138;5.398;2022-09-16T18:36:24;16.10;76.30